Time;durP1;ratioP1;P1;durP2;ratioP2;P2;SDS_P1;SDS_P2;PMS_P1;PMS_P2;Temp;Humidity;BMP_temperature;BMP_pressure;BME280_temperature;BME280_humidity;BME280_pressure;Samples;Min_cycle;Max_cycle;Signal;HPM_P1;HPM_P2
2022/11/21 01:25:12;;;;;;;;;;;;;;;;;;;;;
2022/11/21 01:27:16;;;;;;;;;;;;;;;;;;;;;
2022/11/21 01:29:57;;;;;;;;;;;;;;;;;;;;;
2022/11/21 01:32:41;;;;;;;;;4.00;1.00;;;;;5.59;97.35;99949.50;6279009;22;72866;-94
2022/11/21 01:35:17;;;;;;;;;2.75;2.75;;;;;6.11;97.35;100030.31;6271736;22;44716;-93
2022/11/21 01:37:51;;;;;;;;;3.50;2.25;;;;;5.94;97.37;100001.59;6270079;22;45523;-94
2022/11/21 01:40:25;;;;;;;;;7.00;2.00;;;;;6.82;97.40;100134.56;6296183;22;46209;-93
2022/11/21 01:43:15;;;;;;;;;;;;;;;;;;;;;
2022/11/21 01:46:13;;;;;;;;;;;;;;;;;;;;;
2022/11/21 01:49:09;;;;;;;;;3.00;2.00;;;;;7.43;98.54;100234.59;6292937;22;69186;-94
2022/11/21 01:52:13;;;;;;;;;7.00;2.00;;;;;6.80;98.18;100143.34;6267299;22;47860;-94
2022/11/21 02:01:55;;;;;;;;;2.75;2.75;;;;;7.36;98.47;100217.13;6159353;23;45404;-94
2022/11/21 02:04:40;;;;;;;;;2.25;2.25;;;;;6.38;97.86;100067.66;6141339;23;47034;-94
2022/11/21 02:07:24;;;;;;;;;2.50;1.00;;;;;7.31;98.04;100209.31;6133269;23;45348;-95
2022/11/21 02:10:13;;;;;;;;;2.00;2.00;;;;;7.31;98.28;100237.38;6165385;23;45312;-93
2022/11/21 02:12:55;;;;;;;;;2.00;2.00;;;;;7.31;97.96;100219.81;6166048;23;45156;-95
2022/11/21 02:16:03;;;;;;;;;1.25;1.25;;;;;5.70;98.09;99965.97;6166131;23;45233;-95
2022/11/21 02:18:43;;;;;;;;;6.50;3.75;;;;;6.21;98.17;100026.69;6142995;23;44620;-93
2022/11/21 02:21:43;;;;;;;;;2.00;2.00;;;;;7.27;98.88;100207.59;6175648;23;44742;-93
2022/11/21 02:24:53;;;;;;;;;3.25;2.00;;;;;5.69;97.88;99970.34;6143079;23;44728;-94
2022/11/21 02:27:38;;;;;;;;;2.00;1.75;;;;;5.01;97.57;99841.69;6137697;23;46573;-94
2022/11/21 02:30:15;;;;;;;;;3.25;1.50;;;;;6.60;98.17;100078.75;6113980;23;45314;-94
2022/11/21 02:32:55;;;;;;;;;1.50;1.50;;;;;6.60;98.35;100072.66;6264761;22;45309;-94
2022/11/21 02:35:24;;;;;;;;;5.00;2.00;;;;;6.37;98.28;100050.16;6253850;22;44817;-93
2022/11/21 02:38:27;;;;;;;;;;;;;;;;;;;;;
2022/11/21 02:41:44;;;;;;;;;;;;;;;;;;;;;
2022/11/21 02:47:53;;;;;;;;;8.00;3.50;;;;;6.13;98.45;99993.53;6284691;22;45230;-96
2022/11/21 02:50:55;;;;;;;;;;;;;;;;;;;;;
2022/11/21 02:53:35;;;;;;;;;4.00;2.25;;;;;6.20;97.63;100006.56;6163179;23;72861;-94
2022/11/21 02:56:16;;;;;;;;;;;;;;;;;;;;;
2022/11/21 02:58:52;;;;;;;;;;;;;;;;;;;;;
2022/11/21 03:01:29;;;;;;;;;;;;;;;;;;;;;
2022/11/21 03:04:00;;;;;;;;;3.00;2.00;;;;;7.15;98.08;100174.47;6071041;23;73635;-95
2022/11/21 03:06:27;;;;;;;;;1.00;1.00;;;;;6.73;98.45;100076.88;6067810;23;45276;-92
2022/11/21 03:09:00;;;;;;;;;4.00;2.00;;;;;6.39;97.87;100036.13;6048397;23;45305;-93
2022/11/21 03:11:34;;;;;;;;;3.00;3.00;;;;;5.27;97.90;99840.59;6074535;23;47276;-93
2022/11/21 03:14:20;;;;;;;;;2.00;1.00;;;;;5.98;97.61;99965.72;6081471;23;45280;-96
2022/11/21 03:17:25;;;;;;;;;1.00;1.00;;;;;7.14;98.44;100138.56;6088850;23;44735;-95
2022/11/21 03:23:41;;;;;;;;;1.75;1.75;;;;;5.26;97.60;99820.50;6053951;23;45287;-94
2022/11/21 03:40:21;;;;;;;;;4.25;3.00;;;;;5.45;98.28;99805.41;6235402;22;45403;-95
2022/11/21 03:56:42;;;;;;;;;;;;;;;;;;;;;
2022/11/21 04:03:03;;;;;;;;;;;;;;;;;;;;;
2022/11/21 04:08:47;;;;;;;;;5.50;4.50;;;;;6.97;98.34;100035.41;6051610;23;44791;-95
2022/11/21 04:11:32;;;;;;;;;7.50;6.75;;;;;5.05;97.49;99717.66;6039739;23;45416;-95
2022/11/21 04:14:30;;;;;;;;;3.00;3.00;;;;;6.38;98.22;99931.16;6066157;23;45101;-93
2022/11/21 04:17:12;;;;;;;;;;;;;;;;;;;;;
2022/11/21 04:19:49;;;;;;;;;3.00;2.00;;;;;6.48;97.96;99947.63;6085966;23;67705;-95
2022/11/21 04:22:55;;;;;;;;;5.00;5.00;;;;;4.63;97.72;99647.41;6062120;23;44778;-93
2022/11/21 04:32:48;;;;;;;;;9.25;5.75;;;;;5.94;98.09;99866.94;6248674;22;45742;-93
2022/11/21 04:35:26;;;;;;;;;5.50;5.50;;;;;4.76;97.75;99669.06;6230945;22;44838;-94
2022/11/21 04:38:14;;;;;;;;;4.00;3.75;;;;;6.68;98.11;99986.75;6234398;22;46062;-94
2022/11/21 04:40:46;;;;;;;;;6.00;4.00;;;;;4.56;97.57;99619.56;6228144;22;44875;-94
2022/11/21 04:43:23;;;;;;;;;5.50;3.75;;;;;4.53;97.80;99634.44;6231545;22;45541;-93
2022/11/21 04:45:57;;;;;;;;;7.50;5.75;;;;;5.80;97.93;99831.25;6247049;22;45420;-94
2022/11/21 04:48:25;;;;;;;;;3.25;3.25;;;;;4.96;98.30;99696.78;6304438;22;46596;-93
2022/11/21 04:51:25;;;;;;;;;6.50;6.00;;;;;4.97;98.29;99688.91;6295954;22;45201;-94
2022/11/21 04:54:16;;;;;;;;;7.75;5.50;;;;;5.17;97.81;99716.66;6291024;22;44727;-94
2022/11/21 04:56:56;;;;;;;;;7.50;6.25;;;;;5.54;97.86;99783.47;6318696;22;45178;-94
2022/11/21 04:59:56;;;;;;;;;3.00;3.00;;;;;5.41;98.62;99757.41;6304352;22;46705;-95
2022/11/21 05:15:53;;;;;;;;;;;;;;;;;;;;;
2022/11/21 05:18:21;;;;;;;;;8.75;7.50;;;;;6.46;98.35;99923.16;6199897;23;67984;-94
2022/11/21 05:20:47;;;;;;;;;4.50;4.00;;;;;5.29;98.01;99731.38;6172558;23;45604;-94
2022/11/21 05:23:20;;;;;;;;;4.50;3.00;;;;;4.35;98.08;99576.16;6167136;23;45369;-95
2022/11/21 05:26:11;;;;;;;;;;;;;;;;;;;;;
2022/11/21 05:28:47;;;;;;;;;6.50;6.50;;;;;5.96;97.32;99838.91;6199653;23;67974;-93
2022/11/21 05:38:30;;;;;;;;;7.50;6.00;;;;;5.86;98.20;99836.41;6220429;22;45452;-94
2022/11/21 05:41:23;;;;;;;;;4.00;4.00;;;;;6.37;97.79;99911.88;6229065;22;44749;-94
2022/11/21 05:44:21;;;;;;;;;;;;;;;;;;;;;
2022/11/21 05:47:20;;;;;;;;;6.25;5.00;;;;;5.10;98.46;99700.16;6228341;22;73662;-95
2022/11/21 05:49:57;;;;;;;;;4.00;3.00;;;;;5.56;97.91;99748.50;6109164;23;44828;-94
2022/11/21 05:52:36;;;;;;;;;6.50;5.50;;;;;6.47;97.63;99883.75;6106402;23;45269;-95
2022/11/21 06:14:58;;;;;;;;;;;;;;;;;;;;;
2022/11/21 06:24:11;;;;;;;;;;;;;;;;;;;;;
2022/11/21 06:26:45;;;;;;;;;9.00;6.75;;;;;5.37;97.60;99606.31;6160974;23;72824;-94
2022/11/21 06:33:16;;;;;;;;;8.00;7.00;;;;;5.37;98.27;99593.22;6165270;23;45188;-95
2022/11/21 06:36:16;;;;;;;;;12.25;7.75;;;;;4.76;97.84;99483.19;6155912;23;45208;-95
2022/11/21 06:39:15;;;;;;;;;8.25;8.00;;;;;4.79;98.52;99482.28;6168125;22;45450;-95
2022/11/21 06:41:57;;;;;;;;;11.25;11.25;;;;;6.64;98.11;99807.34;6225728;22;45360;-94
2022/11/21 06:44:41;;;;;;;;;10.75;9.00;;;;;5.63;98.28;99618.19;6216153;22;45445;-94
2022/11/21 06:51:32;;;;;;;;;11.25;11.00;;;;;5.50;97.78;99604.41;6322947;22;44676;-95
2022/11/21 06:54:25;;;;;;;;;8.00;7.50;;;;;6.20;98.02;99701.31;6174077;23;45232;-93
2022/11/21 06:57:05;;;;;;;;;;;;;;;;;;;;;
2022/11/21 07:03:39;;;;;;;;;7.75;5.50;;;;;6.53;97.87;99731.38;6148115;23;44556;-95
2022/11/21 07:19:09;;;;;;;;;11.75;11.75;;;;;6.34;97.81;99690.56;6310239;22;45752;-94
2022/11/21 07:21:38;;;;;;;;;17.25;11.50;;;;;5.85;97.65;99614.34;6327945;22;45206;-95
2022/11/21 07:24:11;;;;;;;;;11.75;10.25;;;;;4.96;98.30;99469.81;6351794;22;45723;-93
2022/11/21 07:26:39;;;;;;;;;14.00;13.50;;;;;4.95;97.48;99464.59;6350171;22;45178;-94
2022/11/21 07:29:05;;;;;;;;;13.25;12.25;;;;;5.09;97.64;99485.38;6352332;22;45237;-92
2022/11/21 07:31:32;;;;;;;;;11.25;11.25;;;;;5.29;96.86;99519.13;6320721;22;45546;-94
2022/11/21 07:33:59;;;;;;;;;12.00;11.75;;;;;4.33;97.46;99360.78;6354487;22;45831;-93
2022/11/21 07:36:27;;;;;;;;;15.75;11.75;;;;;4.99;96.85;99455.81;6383183;22;45832;-93
2022/11/21 07:39:05;;;;;;;;;13.50;13.50;;;;;5.12;96.75;99504.50;6356289;22;44650;-96
2022/11/21 07:41:31;;;;;;;;;9.25;8.50;;;;;5.60;96.91;99590.28;6375496;22;44862;-94
2022/11/21 07:44:00;;;;;;;;;8.50;6.00;;;;;4.09;96.83;99330.56;6325649;22;47685;-94
2022/11/21 07:46:26;;;;;;;;;15.50;13.75;;;;;5.78;97.14;99620.56;6297754;22;45183;-94
2022/11/21 07:48:54;;;;;;;;;15.00;15.00;;;;;5.99;96.95;99636.91;6316916;22;44558;-93
2022/11/21 07:51:21;;;;;;;;;17.50;11.50;;;;;4.71;97.33;99427.41;6324788;22;45539;-94
2022/11/21 07:53:48;;;;;;;;;22.25;19.00;;;;;4.49;97.10;99374.50;6322012;22;46622;-94
2022/11/21 07:56:14;;;;;;;;;19.25;16.50;;;;;5.67;97.02;99573.56;6323573;22;44588;-94
2022/11/21 07:58:40;;;;;;;;;15.50;13.75;;;;;4.47;97.31;99364.94;6317527;22;44824;-93
2022/11/21 08:01:06;;;;;;;;;21.75;17.75;;;;;5.52;97.24;99526.59;6315835;22;45607;-93
2022/11/21 08:03:44;;;;;;;;;29.00;22.75;;;;;5.38;97.51;99471.78;6319232;22;47231;-94
2022/11/21 08:06:12;;;;;;;;;21.00;18.50;;;;;5.55;97.86;99494.25;6314614;22;45337;-94
2022/11/21 08:08:38;;;;;;;;;22.25;19.25;;;;;5.60;97.53;99492.41;6312188;22;45365;-95
2022/11/21 08:11:05;;;;;;;;;10.25;9.25;;;;;4.57;97.42;99336.00;6318540;22;45328;-93
2022/11/21 08:13:39;;;;;;;;;22.25;16.50;;;;;5.04;97.66;99412.09;6326182;22;47012;-94
2022/11/21 08:16:07;;;;;;;;;24.50;21.00;;;;;5.06;97.72;99394.59;6301392;22;45140;-94
2022/11/21 08:18:40;;;;;;;;;24.75;19.50;;;;;4.53;97.68;99291.59;6324903;22;45232;-94
2022/11/21 08:21:31;;;;;;;;;15.50;15.50;;;;;6.16;97.30;99558.75;6326955;22;45119;-94
2022/11/21 08:23:58;;;;;;;;;16.50;12.00;;;;;5.75;97.58;99488.66;6332618;22;45649;-94
2022/11/21 08:26:25;;;;;;;;;15.75;15.75;;;;;5.04;97.13;99379.78;6326694;22;44963;-94
2022/11/21 08:28:50;;;;;;;;;15.00;14.00;;;;;5.90;97.43;99501.50;6326045;22;44612;-94
2022/11/21 08:31:16;;;;;;;;;14.25;12.00;;;;;5.21;97.80;99400.44;6319901;22;45146;-94
2022/11/21 08:33:41;;;;;;;;;15.25;13.25;;;;;5.41;96.83;99431.59;6311311;22;47955;-94
2022/11/21 08:36:07;;;;;;;;;18.25;14.00;;;;;5.09;97.43;99363.09;6309962;22;45242;-94
2022/11/21 08:38:36;;;;;;;;;14.50;9.00;;;;;5.98;96.61;99512.78;6288565;22;44653;-94
2022/11/21 08:43:49;;;;;;;;;13.00;13.00;;;;;5.91;97.48;99510.25;6326213;22;44901;-95
2022/11/21 08:46:17;;;;;;;;;11.50;11.50;;;;;4.60;97.31;99282.72;6324153;22;45170;-94
2022/11/21 08:48:44;;;;;;;;;13.50;13.25;;;;;6.33;97.80;99570.72;6316402;22;45278;-95
2022/11/21 08:51:24;;;;;;;;;;;;;;;;;;;;;
2022/11/21 08:54:00;;;;;;;;;14.00;12.50;;;;;5.94;97.69;99495.31;6226301;22;45591;-94
2022/11/21 08:56:29;;;;;;;;;16.50;13.75;;;;;5.18;96.78;99330.66;6222405;22;45231;-92
2022/11/21 08:59:18;;;;;;;;;13.75;11.00;;;;;6.01;97.39;99455.00;6200004;22;45268;-94
2022/11/21 09:01:44;;;;;;;;;16.25;16.25;;;;;5.67;98.04;99366.41;6198295;22;45340;-96
2022/11/21 09:04:09;;;;;;;;;20.25;18.50;;;;;4.97;96.81;99242.84;6192005;22;47031;-90
2022/11/21 09:06:35;;;;;;;;;17.00;17.00;;;;;6.53;97.85;99500.34;6216820;22;45224;-90
2022/11/21 09:09:03;;;;;;;;;17.75;14.00;;;;;5.31;97.18;99299.84;6200201;22;44847;-90
2022/11/21 09:11:28;;;;;;;;;16.50;14.00;;;;;6.23;97.79;99434.44;6195238;22;45430;-89
2022/11/21 09:19:25;;;;;;;;;12.00;12.00;;;;;6.42;97.20;99447.16;6216825;22;45266;-89
2022/11/21 09:21:52;;;;;;;;;12.75;11.25;;;;;6.46;97.42;99455.88;6195899;22;44853;-90
2022/11/21 09:24:18;;;;;;;;;9.75;9.25;;;;;6.36;97.17;99410.56;6194170;22;47807;-91
2022/11/21 09:26:44;;;;;;;;;12.50;10.75;;;;;6.73;97.40;99480.69;6220451;22;45420;-90
2022/11/21 09:29:20;;;;;;;;;17.50;14.50;;;;;4.55;96.66;99096.13;6222794;22;45364;-90
2022/11/21 09:31:53;;;;;;;;;16.00;12.00;;;;;6.35;97.38;99374.72;6173319;22;44774;-93
2022/11/21 09:34:21;;;;;;;;;11.00;8.75;;;;;6.81;97.75;99441.97;6221250;22;45398;-90
2022/11/21 09:36:55;;;;;;;;;12.25;11.00;;;;;6.40;98.04;99375.47;6193901;22;45248;-93
2022/11/21 09:39:21;;;;;;;;;11.75;11.75;;;;;6.28;97.67;99331.13;6196705;22;45257;-88
2022/11/21 09:42:24;;;;;;;;;10.00;10.00;;;;;6.88;97.89;99416.44;6201486;22;44906;-90
2022/11/21 09:45:13;;;;;;;;;12.00;11.25;;;;;6.89;97.25;99391.88;6298991;22;47179;-89
2022/11/21 09:47:44;;;;;;;;;13.50;8.50;;;;;6.11;96.94;99251.03;6318517;22;45155;-90
2022/11/21 09:50:36;;;;;;;;;14.00;11.75;;;;;6.92;97.25;99370.78;6317465;22;45226;-90
2022/11/21 09:53:15;;;;;;;;;12.25;9.00;;;;;6.23;97.46;99250.75;6318214;22;45253;-90
2022/11/21 09:55:44;;;;;;;;;14.00;11.75;;;;;4.95;96.09;99029.88;6313590;22;45307;-91
2022/11/21 09:58:44;;;;;;;;;15.25;9.00;;;;;6.87;97.21;99346.41;6314830;22;45391;-92
2022/11/21 10:01:18;;;;;;;;;14.00;12.25;;;;;5.66;96.72;99160.22;6314287;22;45151;-91
2022/11/21 10:03:53;;;;;;;;;13.25;12.00;;;;;4.77;96.26;98987.50;6310153;22;44852;-90
2022/11/21 10:06:32;;;;;;;;;8.00;8.00;;;;;6.83;96.66;99328.97;6312926;22;47130;-91
2022/11/21 10:09:33;;;;;;;;;11.75;11.50;;;;;6.64;97.52;99270.81;6292060;22;44717;-91
2022/11/21 10:15:40;;;;;;;;;8.25;8.00;;;;;5.73;97.01;99095.38;6318617;22;45221;-91
2022/11/21 10:18:40;;;;;;;;;10.25;10.25;;;;;7.00;96.68;99274.28;6324109;22;47100;-92
2022/11/21 10:21:53;;;;;;;;;13.75;8.50;;;;;7.05;97.47;99274.16;6325120;22;45216;-91
2022/11/21 10:24:47;;;;;;;;;11.25;10.75;;;;;6.48;96.74;99181.06;6197517;22;45420;-91
2022/11/21 10:27:20;;;;;;;;;8.00;8.00;;;;;7.17;97.10;99259.81;6194357;22;45274;-90
2022/11/21 10:30:03;;;;;;;;;10.50;9.25;;;;;6.29;96.80;99117.69;6221471;22;46320;-90
2022/11/21 10:33:08;;;;;;;;;;;;;;;;;;;;;
2022/11/21 10:35:38;;;;;;;;;7.25;6.75;;;;;7.34;96.81;99246.22;6208207;22;45441;-90
2022/11/21 10:38:18;;;;;;;;;8.25;6.75;;;;;7.40;96.62;99227.66;6194899;22;45295;-90
2022/11/21 10:40:53;;;;;;;;;5.25;5.25;;;;;6.86;96.23;99142.41;6227195;22;45469;-89
2022/11/21 10:46:25;;;;;;;;;8.00;5.25;;;;;6.68;95.38;99088.63;6228591;22;45215;-90
2022/11/21 10:49:15;;;;;;;;;3.25;3.25;;;;;7.06;95.89;99150.63;6223922;22;45451;-90
2022/11/21 10:52:27;;;;;;;;;9.00;7.00;;;;;5.48;95.53;98856.59;6220724;22;46227;-90
2022/11/21 10:58:46;;;;;;;;;2.00;2.00;;;;;7.64;95.73;99171.69;6260392;22;45348;-88
2022/11/21 11:01:46;;;;;;;;;7.75;6.00;;;;;7.71;95.75;99188.16;6276618;22;45430;-90
2022/11/21 11:04:41;;;;;;;;;8.50;7.00;;;;;7.77;95.93;99169.56;6263228;22;47204;-90
2022/11/21 11:07:55;;;;;;;;;6.00;3.75;;;;;6.65;95.65;98963.56;6220554;22;45423;-91
2022/11/21 11:14:42;;;;;;;;;6.25;5.75;;;;;7.67;96.04;99122.53;6224505;22;45293;-91
2022/11/21 11:18:02;;;;;;;;;;;;;;;;;;;;;
2022/11/21 11:20:40;;;;;;;;;7.50;4.00;;;;;7.27;93.89;99036.13;6218207;22;72107;-91
2022/11/21 11:23:16;;;;;;;;;6.25;4.00;;;;;7.28;95.20;99029.09;6189942;22;45405;-89
2022/11/21 11:25:48;;;;;;;;;5.00;2.75;;;;;7.24;95.13;99033.59;6226558;22;45563;-90
2022/11/21 11:28:18;;;;;;;;;7.25;6.00;;;;;6.66;95.84;98930.28;6223852;22;46976;-91
2022/11/21 11:30:44;;;;;;;;;7.00;6.50;;;;;6.46;95.01;98904.63;6245184;22;45490;-91
2022/11/21 11:33:39;;;;;;;;;7.00;3.50;;;;;7.87;95.89;99107.00;6220821;22;45357;-91
2022/11/21 11:36:56;;;;;;;;;3.00;3.00;;;;;5.97;95.03;98775.75;6232346;22;44832;-91
2022/11/21 11:39:37;;;;;;;;;5.50;4.00;;;;;7.38;95.86;99001.63;6240305;22;45264;-90
2022/11/21 11:48:18;;;;;;;;;7.50;5.50;;;;;7.24;95.38;98923.22;6183988;23;45239;-90
2022/11/21 11:51:00;;;;;;;;;9.00;7.25;;;;;6.38;95.28;98771.00;6164311;23;45240;-91
2022/11/21 11:53:46;;;;;;;;;3.75;3.75;;;;;7.92;96.24;99013.00;6162803;23;45379;-91
2022/11/21 11:56:14;;;;;;;;;7.50;4.00;;;;;7.90;96.13;98992.94;6159404;23;45387;-90
2022/11/21 11:58:54;;;;;;;;;10.25;6.00;;;;;7.91;96.11;98984.97;6189860;23;45704;-90
2022/11/21 12:01:40;;;;;;;;;8.00;6.75;;;;;7.46;96.07;98893.59;6170152;23;47367;-90
2022/11/21 12:04:11;;;;;;;;;9.00;6.50;;;;;7.95;96.21;98941.00;6173783;23;45387;-89
2022/11/21 12:06:55;;;;;;;;;6.50;5.75;;;;;7.94;95.74;98927.00;6201299;23;44676;-89
2022/11/21 12:09:30;;;;;;;;;7.00;4.50;;;;;5.85;95.10;98594.25;6194839;23;45427;-91
2022/11/21 12:12:32;;;;;;;;;5.25;5.00;;;;;7.96;95.43;98925.16;6194049;23;47110;-91
2022/11/21 12:15:48;;;;;;;;;7.00;7.00;;;;;7.98;95.53;98918.06;6195221;23;45637;-91
2022/11/21 12:18:17;;;;;;;;;6.00;4.00;;;;;8.00;95.61;98900.47;6185206;23;45529;-91
2022/11/21 12:20:58;;;;;;;;;4.00;4.00;;;;;8.00;95.67;98895.19;6190995;23;45004;-89
2022/11/21 12:23:29;;;;;;;;;8.00;3.50;;;;;6.82;95.08;98682.06;6227767;22;46977;-91
2022/11/21 12:26:03;;;;;;;;;4.00;3.50;;;;;8.04;95.92;98879.31;6260175;22;45233;-90
2022/11/21 12:28:49;;;;;;;;;6.00;6.00;;;;;8.05;94.68;98871.34;6278641;22;45300;-90
2022/11/21 12:31:30;;;;;;;;;6.50;6.50;;;;;8.05;95.57;98862.56;6286181;22;44808;-90
2022/11/21 12:34:22;;;;;;;;;7.50;7.50;;;;;8.03;95.01;98851.25;6285501;22;46908;-89
2022/11/21 12:37:03;;;;;;;;;8.00;4.75;;;;;8.02;95.09;98855.69;6283530;22;45407;-91
2022/11/21 12:40:16;;;;;;;;;5.75;5.75;;;;;6.90;95.78;98648.47;6282600;22;45378;-90
2022/11/21 12:43:05;;;;;;;;;6.00;6.00;;;;;7.28;95.90;98695.31;6150603;23;45493;-90
2022/11/21 12:45:33;;;;;;;;;4.00;4.00;;;;;6.59;95.21;98590.97;6185406;23;46417;-92
2022/11/21 12:54:59;;;;;;;;;4.00;3.25;;;;;6.38;96.07;98535.69;6097841;23;45537;-91
2022/11/21 12:58:02;;;;;;;;;4.00;2.00;;;;;7.83;96.77;98758.16;6078762;23;47638;-90
2022/11/21 13:00:33;;;;;;;;;5.50;3.50;;;;;7.81;96.60;98758.19;6101674;23;45358;-89
2022/11/21 13:03:17;;;;;;;;;4.25;3.25;;;;;7.38;96.18;98675.69;6106305;23;44762;-91
2022/11/21 13:05:47;;;;;;;;;5.75;2.50;;;;;7.78;96.96;98762.72;6076901;23;45646;-90
2022/11/21 13:08:22;;;;;;;;;4.00;3.75;;;;;6.72;95.82;98597.47;6072480;23;46401;-90
2022/11/21 13:14:08;;;;;;;;;4.00;4.00;;;;;6.87;96.84;98617.06;6082945;23;45328;-89
2022/11/21 13:16:38;;;;;;;;;6.50;4.75;;;;;7.10;96.18;98649.53;6094149;23;45523;-90
2022/11/21 13:19:30;;;;;;;;;4.00;3.00;;;;;6.99;96.89;98604.44;6107473;23;48285;-90
2022/11/21 13:21:56;;;;;;;;;3.00;1.00;;;;;6.04;96.78;98436.31;6164573;23;44741;-90
2022/11/21 13:24:43;;;;;;;;;4.25;2.00;;;;;7.54;97.36;98681.19;6148553;23;44667;-88
2022/11/21 13:27:30;;;;;;;;;5.00;3.50;;;;;6.90;97.38;98555.72;6177619;22;45267;-88
2022/11/21 13:30:13;;;;;;;;;7.50;6.50;;;;;7.18;97.38;98600.22;6313338;22;45383;-90
2022/11/21 13:32:41;;;;;;;;;7.00;3.75;;;;;7.49;98.35;98648.97;6319536;22;45339;-89
2022/11/21 13:35:13;;;;;;;;;4.00;2.50;;;;;7.46;98.74;98633.31;6284770;22;45293;-90
2022/11/21 13:37:51;;;;;;;;;3.50;2.00;;;;;7.45;98.65;98611.44;6285422;22;45206;-89
2022/11/21 13:40:25;;;;;;;;;4.50;4.00;;;;;7.43;98.45;98594.88;6281761;22;45987;-89
2022/11/21 13:43:13;;;;;;;;;3.25;3.25;;;;;7.41;97.86;98591.44;6280819;22;45242;-89
2022/11/21 13:45:42;;;;;;;;;1.75;1.75;;;;;7.41;98.48;98580.06;6279550;22;45435;-90
2022/11/21 13:48:16;;;;;;;;;7.00;4.50;;;;;7.38;99.18;98572.28;6276981;22;45311;-89
2022/11/21 13:50:55;;;;;;;;;3.50;3.50;;;;;6.88;98.84;98497.16;6278112;22;45772;-89
2022/11/21 13:53:45;;;;;;;;;3.50;3.50;;;;;7.05;98.48;98530.66;6280926;22;45210;-88
2022/11/21 13:56:38;;;;;;;;;3.25;3.25;;;;;7.36;99.58;98582.88;6273861;22;45467;-88
2022/11/21 13:59:33;;;;;;;;;3.50;3.50;;;;;7.38;99.33;98580.19;6281476;22;45359;-88
2022/11/21 14:02:20;;;;;;;;;2.75;2.00;;;;;7.38;99.70;98569.66;6281574;22;45448;-89
2022/11/21 14:05:39;;;;;;;;;3.50;2.50;;;;;7.06;98.79;98509.56;6279976;22;45446;-88
2022/11/21 14:08:11;;;;;;;;;3.75;2.75;;;;;7.35;99.82;98564.53;6211829;22;45436;-88
2022/11/21 14:10:45;;;;;;;;;4.00;1.50;;;;;7.34;99.15;98544.44;6213172;22;45580;-86
2022/11/21 14:13:35;;;;;;;;;3.00;2.75;;;;;6.76;99.40;98438.06;6213441;22;45469;-87
2022/11/21 14:16:18;;;;;;;;;2.00;2.00;;;;;7.30;100.00;98522.66;6186782;22;45446;-89
2022/11/21 14:18:45;;;;;;;;;4.00;4.00;;;;;7.13;99.45;98483.91;6215405;22;45295;-87
2022/11/21 14:21:26;;;;;;;;;7.25;4.00;;;;;6.55;100.00;98411.69;6190444;22;45369;-89
2022/11/21 14:23:56;;;;;;;;;2.75;2.75;;;;;7.26;100.00;98511.41;6218652;22;45416;-89
2022/11/21 14:26:24;;;;;;;;;6.75;3.00;;;;;5.81;99.26;98271.91;6197030;22;45402;-89
2022/11/21 14:28:50;;;;;;;;;5.00;3.00;;;;;6.60;99.71;98398.41;6221530;22;45282;-89
2022/11/21 14:31:16;;;;;;;;;5.00;3.00;;;;;6.51;99.60;98372.50;6213381;22;45707;-88
2022/11/21 14:33:46;;;;;;;;;3.00;3.00;;;;;7.15;100.00;98463.69;6212133;22;45414;-88
2022/11/21 14:36:17;;;;;;;;;3.00;3.00;;;;;7.15;99.60;98447.06;6211186;22;45346;-88
2022/11/21 14:38:48;;;;;;;;;2.50;2.25;;;;;6.80;100.00;98400.25;6248043;22;45293;-89
2022/11/21 14:41:22;;;;;;;;;2.00;2.00;;;;;7.06;100.00;98450.91;6278122;22;45438;-87
2022/11/21 14:43:49;;;;;;;;;7.75;2.50;;;;;6.44;100.00;98364.03;6280060;22;46651;-87
2022/11/21 14:46:18;;;;;;;;;7.25;4.50;;;;;6.82;100.00;98422.06;6282532;22;45505;-88
2022/11/21 14:48:45;;;;;;;;;3.00;3.00;;;;;5.39;100.00;98192.22;6308882;22;45458;-88
2022/11/21 14:51:16;;;;;;;;;2.00;1.50;;;;;6.06;100.00;98298.13;6319233;22;45510;-89
2022/11/21 14:53:43;;;;;;;;;4.00;4.00;;;;;5.44;100.00;98211.22;6284458;22;47544;-89
2022/11/21 14:56:18;;;;;;;;;4.00;3.00;;;;;5.32;100.00;98201.19;6289406;22;45229;-92
2022/11/21 14:58:44;;;;;;;;;3.00;2.00;;;;;5.44;100.00;98211.22;6286324;22;45272;-90
2022/11/21 15:01:21;;;;;;;;;4.00;3.00;;;;;6.75;100.00;98418.81;6282399;22;45424;-90
2022/11/21 15:03:57;;;;;;;;;3.75;3.00;;;;;5.87;100.00;98264.66;6286555;22;47173;-89
2022/11/21 15:06:25;;;;;;;;;4.00;4.00;;;;;5.94;100.00;98273.19;6309746;22;44726;-90
2022/11/21 15:08:52;;;;;;;;;5.00;2.75;;;;;6.55;100.00;98384.59;6283791;22;45284;-90
2022/11/21 15:11:21;;;;;;;;;5.75;2.50;;;;;5.35;100.00;98193.22;6290083;22;45132;-91
2022/11/21 15:13:52;;;;;;;;;3.25;3.25;;;;;5.85;100.00;98273.53;6291367;22;46125;-90
2022/11/21 15:16:18;;;;;;;;;4.00;4.00;;;;;5.42;100.00;98196.47;6319084;22;45356;-91
2022/11/21 15:18:43;;;;;;;;;2.25;2.25;;;;;4.65;100.00;98091.88;6284373;22;45244;-91
2022/11/21 15:21:13;;;;;;;;;4.00;3.00;;;;;6.05;100.00;98315.59;6281957;22;45448;-90
2022/11/21 15:23:41;;;;;;;;;6.50;5.00;;;;;6.17;100.00;98368.53;6283029;22;47079;-91
2022/11/21 15:26:31;;;;;;;;;3.00;2.00;;;;;6.58;100.00;98405.47;6315671;22;45222;-90
2022/11/21 15:28:59;;;;;;;;;3.75;3.75;;;;;5.64;100.00;98254.19;6286125;22;45419;-92
2022/11/21 15:31:24;;;;;;;;;3.25;3.00;;;;;6.50;100.00;98416.28;6283951;22;45256;-91
2022/11/21 15:34:03;;;;;;;;;3.00;3.00;;;;;5.83;100.00;98294.56;6284193;22;47812;-89
2022/11/21 15:36:32;;;;;;;;;6.25;4.25;;;;;6.31;100.00;98365.41;6286110;22;44680;-88
2022/11/21 15:39:16;;;;;;;;;3.25;3.00;;;;;6.07;100.00;98312.94;6289624;22;45206;-90
2022/11/21 15:41:41;;;;;;;;;4.00;3.50;;;;;6.02;100.00;98307.00;6286425;22;45354;-90
2022/11/21 15:44:07;;;;;;;;;3.75;3.75;;;;;6.64;100.00;98399.16;6286774;22;46825;-92
2022/11/21 15:46:43;;;;;;;;;3.00;3.00;;;;;6.04;100.00;98302.56;6284539;22;45170;-91
2022/11/21 15:49:11;;;;;;;;;4.00;2.75;;;;;4.93;100.00;98115.31;6284169;22;45360;-91
2022/11/21 15:51:40;;;;;;;;;3.50;3.50;;;;;5.98;100.00;98314.16;6311651;22;45411;-90
2022/11/21 15:54:11;;;;;;;;;6.50;4.00;;;;;6.64;100.00;98405.25;6287742;22;48043;-90
2022/11/21 15:56:36;;;;;;;;;3.00;3.00;;;;;5.88;100.00;98299.63;6285244;22;45273;-89
2022/11/21 15:59:02;;;;;;;;;2.25;2.25;;;;;6.25;100.00;98355.97;6284233;22;45261;-91
2022/11/21 16:01:41;;;;;;;;;3.75;3.75;;;;;5.67;100.00;98254.94;6290343;22;45487;-90
2022/11/21 16:04:13;;;;;;;;;6.50;4.50;;;;;6.67;100.00;98404.28;6320933;22;45293;-90
2022/11/21 16:06:38;;;;;;;;;3.00;2.50;;;;;5.19;100.00;98153.63;6295981;22;44659;-90
2022/11/21 16:09:03;;;;;;;;;3.00;3.00;;;;;5.69;100.00;98258.38;6294859;22;45213;-89
2022/11/21 16:11:31;;;;;;;;;2.50;2.50;;;;;6.79;100.00;98422.19;6289293;22;45264;-90
2022/11/21 16:14:01;;;;;;;;;3.25;3.25;;;;;5.99;100.00;98291.38;6290956;22;47173;-92
2022/11/21 16:16:38;;;;;;;;;2.00;2.00;;;;;5.83;100.00;98265.72;6309415;22;45198;-90
2022/11/21 16:19:04;;;;;;;;;4.50;4.00;;;;;5.76;100.00;98237.16;6283766;22;45194;-91
2022/11/21 16:21:36;;;;;;;;;3.00;3.00;;;;;5.10;100.00;98101.59;6313548;22;45244;-90
2022/11/21 16:24:02;;;;;;;;;4.00;4.00;;;;;6.96;100.00;98404.91;6313172;22;46278;-90
2022/11/21 16:26:27;;;;;;;;;3.50;3.00;;;;;7.00;100.00;98395.97;6288696;22;45420;-90
2022/11/21 16:28:57;;;;;;;;;2.25;2.25;;;;;6.89;100.00;98381.53;6319664;22;45238;-89
2022/11/21 16:31:29;;;;;;;;;1.00;0.00;;;;;7.03;100.00;98417.75;6297183;22;44799;-90
2022/11/21 16:33:59;;;;;;;;;3.50;3.50;;;;;7.09;100.00;98437.63;6295933;22;46737;-90
2022/11/21 16:36:27;;;;;;;;;4.00;4.00;;;;;5.87;100.00;98217.47;6311154;22;45323;-90
2022/11/21 16:38:53;;;;;;;;;6.00;4.00;;;;;6.82;100.00;98355.53;6307917;22;45390;-91
2022/11/21 16:41:21;;;;;;;;;3.75;3.75;;;;;6.87;100.00;98350.97;6283098;22;45285;-90
2022/11/21 16:43:49;;;;;;;;;8.00;7.00;;;;;5.74;100.00;98158.59;6284445;22;48244;-90
2022/11/21 16:46:15;;;;;;;;;7.75;5.75;;;;;5.41;100.00;98095.22;6285274;22;45347;-90
2022/11/21 16:48:41;;;;;;;;;5.50;3.75;;;;;6.21;100.00;98228.47;6319482;22;44730;-91
2022/11/21 16:51:13;;;;;;;;;6.00;6.00;;;;;7.25;100.00;98406.38;6292972;22;45490;-89
2022/11/21 16:53:40;;;;;;;;;4.00;4.00;;;;;6.46;100.00;98266.88;6315051;22;45356;-91
2022/11/21 16:56:07;;;;;;;;;8.50;7.25;;;;;6.47;100.00;98290.41;6309868;22;45287;-90
2022/11/21 16:58:32;;;;;;;;;8.00;8.00;;;;;7.26;100.00;98426.50;6320179;22;45272;-91
2022/11/21 17:01:06;;;;;;;;;13.00;11.25;;;;;7.29;100.00;98424.56;6311863;22;45475;-90
2022/11/21 17:03:32;;;;;;;;;7.00;7.00;;;;;7.31;100.00;98442.91;6287696;22;47374;-91
2022/11/21 17:05:58;;;;;;;;;3.50;3.50;;;;;5.92;100.00;98203.34;6280804;22;45664;-90